createdAt,value
2017-08-21T00:02:08.704Z,19.00
2017-08-21T00:04:36.364Z,18.89
2017-08-21T00:07:04.360Z,18.93
2017-08-21T00:09:32.304Z,18.91
2017-08-21T00:12:00.144Z,19.09
2017-08-21T00:14:27.830Z,19.01
2017-08-21T00:16:55.494Z,19.15
2017-08-21T00:19:23.222Z,19.23
2017-08-21T00:21:51.055Z,19.25
2017-08-21T00:24:18.981Z,19.29
2017-08-21T00:26:46.944Z,19.28
2017-08-21T00:29:15.010Z,19.30
2017-08-21T00:31:42.755Z,19.29
2017-08-21T00:34:10.623Z,19.26
2017-08-21T00:36:38.611Z,19.19
2017-08-21T00:39:06.486Z,19.13
2017-08-21T00:41:34.224Z,19.23
2017-08-21T00:44:02.213Z,19.32
2017-08-21T00:46:30.080Z,19.35
2017-08-21T00:48:58.074Z,19.35
2017-08-21T00:51:26.040Z,19.33
2017-08-21T00:53:53.906Z,19.26
2017-08-21T00:56:21.748Z,19.45
2017-08-21T00:58:49.492Z,19.43
2017-08-21T01:01:17.508Z,19.29
2017-08-21T01:03:45.227Z,19.19
2017-08-21T01:06:13.242Z,19.10
2017-08-21T01:08:40.963Z,19.02
2017-08-21T01:11:08.924Z,18.94
2017-08-21T01:13:36.816Z,18.96
2017-08-21T01:16:04.500Z,19.00
2017-08-21T01:18:32.226Z,18.98
2017-08-21T01:21:00.220Z,18.98
2017-08-21T01:23:28.086Z,19.10
2017-08-21T01:25:55.904Z,19.10
2017-08-21T01:28:23.793Z,19.01
2017-08-21T01:30:51.707Z,19.01
2017-08-21T01:33:19.431Z,19.00
2017-08-21T01:35:47.233Z,18.97
2017-08-21T01:38:15.088Z,19.08
2017-08-21T01:40:42.971Z,19.09
2017-08-21T01:43:11.042Z,19.16
2017-08-21T01:45:38.766Z,19.30
2017-08-21T01:48:06.775Z,19.45
2017-08-21T01:50:34.847Z,19.52
2017-08-21T01:53:02.566Z,19.53
2017-08-21T01:55:30.433Z,19.53
2017-08-21T01:57:58.245Z,19.42
2017-08-21T02:00:25.969Z,19.38
2017-08-21T02:02:53.775Z,19.44
2017-08-21T02:05:21.775Z,19.47
2017-08-21T02:07:49.617Z,19.44
2017-08-21T02:10:17.576Z,19.46
2017-08-21T02:12:45.591Z,19.49
2017-08-21T02:15:13.308Z,19.54
2017-08-21T02:17:40.972Z,19.69
2017-08-21T02:20:08.978Z,19.80
2017-08-21T02:22:36.822Z,19.87
2017-08-21T02:25:04.759Z,19.86
2017-08-21T02:27:32.827Z,19.82
2017-08-21T02:30:00.622Z,19.80
2017-08-21T02:32:28.584Z,19.84
2017-08-21T02:34:56.657Z,19.88
2017-08-21T02:37:24.372Z,19.96
2017-08-21T02:39:52.316Z,20.05
2017-08-21T02:42:20.055Z,20.10
2017-08-21T02:44:47.895Z,20.21
2017-08-21T02:47:15.640Z,20.31
2017-08-21T02:49:43.654Z,20.37
2017-08-21T02:52:11.650Z,20.50
2017-08-21T02:54:39.390Z,20.64
2017-08-21T02:57:07.252Z,20.72
2017-08-21T02:59:34.913Z,20.86
2017-08-21T03:02:02.642Z,20.99
2017-08-21T03:04:30.633Z,21.12
2017-08-21T03:06:58.302Z,21.24
2017-08-21T03:09:26.018Z,21.36
2017-08-21T03:11:53.840Z,21.53
2017-08-21T03:14:21.553Z,21.60
2017-08-21T03:16:49.517Z,21.73
2017-08-21T03:19:17.332Z,21.79
2017-08-21T03:21:45.276Z,21.87
2017-08-21T03:24:13.175Z,21.93
2017-08-21T03:26:41.246Z,21.95
2017-08-21T03:29:09.104Z,21.97
2017-08-21T03:31:36.970Z,22.03
2017-08-21T03:34:05.036Z,22.03
2017-08-21T03:36:32.742Z,22.09
2017-08-21T03:39:00.771Z,22.18
2017-08-21T03:41:28.652Z,22.21
2017-08-21T03:43:56.382Z,22.23
2017-08-21T03:46:23.989Z,22.26
2017-08-21T03:48:51.969Z,22.29
2017-08-21T03:51:19.914Z,22.34
2017-08-21T03:53:47.775Z,22.41
2017-08-21T03:56:15.854Z,22.39
2017-08-21T03:58:43.518Z,22.33
2017-08-21T04:01:11.326Z,22.40
2017-08-21T04:03:39.069Z,22.39
2017-08-21T04:06:06.706Z,22.41
2017-08-21T04:08:34.808Z,22.43
2017-08-21T04:11:02.817Z,22.43
2017-08-21T04:13:30.718Z,22.41
2017-08-21T04:15:58.430Z,22.31
2017-08-21T04:18:26.296Z,22.27
2017-08-21T04:20:54.238Z,22.23
2017-08-21T04:23:22.083Z,22.27
2017-08-21T04:25:49.898Z,22.28
2017-08-21T04:28:17.919Z,22.22
2017-08-21T04:30:45.751Z,22.14
2017-08-21T04:33:13.524Z,22.23
2017-08-21T04:35:41.314Z,22.25
2017-08-21T04:38:09.153Z,22.14
2017-08-21T04:40:36.874Z,22.13
2017-08-21T04:43:04.689Z,22.12
2017-08-21T04:45:32.556Z,22.17
2017-08-21T04:48:00.300Z,22.16
2017-08-21T04:50:28.170Z,22.20
2017-08-21T04:52:55.972Z,22.26
2017-08-21T04:55:23.976Z,22.25
2017-08-21T04:57:51.912Z,22.16
2017-08-21T05:00:19.573Z,22.21
2017-08-21T05:02:47.234Z,22.21
2017-08-21T05:05:15.110Z,22.26
2017-08-21T05:07:42.887Z,22.28
2017-08-21T05:10:10.836Z,22.28
2017-08-21T05:12:38.668Z,22.36
2017-08-21T05:15:06.367Z,22.28
2017-08-21T05:17:34.438Z,22.33
2017-08-21T05:20:02.245Z,22.29
2017-08-21T05:22:30.171Z,22.31
2017-08-21T05:24:58.105Z,22.44
2017-08-21T05:27:26.095Z,22.40
2017-08-21T05:29:53.840Z,22.47
2017-08-21T05:32:21.828Z,22.53
2017-08-21T05:34:49.897Z,22.80
2017-08-21T05:37:17.642Z,23.02
2017-08-21T05:39:45.650Z,23.20
2017-08-21T05:42:13.312Z,23.37
2017-08-21T05:44:40.975Z,23.54
2017-08-21T05:47:09.031Z,23.70
2017-08-21T05:49:36.778Z,23.82
2017-08-21T05:52:04.765Z,24.09
2017-08-21T05:54:32.833Z,24.33
2017-08-21T05:57:00.695Z,24.29
2017-08-21T05:59:28.585Z,24.48
2017-08-21T06:01:56.587Z,24.48
2017-08-21T06:04:24.429Z,24.62
2017-08-21T06:06:52.248Z,24.29
2017-08-21T06:09:20.113Z,24.44
2017-08-21T06:11:47.921Z,24.89
2017-08-21T06:14:15.770Z,24.85
2017-08-21T06:16:43.714Z,24.83
2017-08-21T06:19:11.725Z,25.13
2017-08-21T06:21:39.745Z,25.05
2017-08-21T06:24:07.567Z,24.84
2017-08-21T06:26:35.505Z,24.80
2017-08-21T06:29:03.367Z,24.77
2017-08-21T06:31:31.116Z,25.07
2017-08-21T06:33:59.081Z,24.96
2017-08-21T06:36:26.792Z,25.29
2017-08-21T06:38:54.816Z,25.25
2017-08-21T06:41:22.707Z,25.11
2017-08-21T06:43:50.450Z,25.04
2017-08-21T06:46:18.321Z,24.87
2017-08-21T06:48:46.333Z,24.68
2017-08-21T06:51:14.176Z,24.64
2017-08-21T06:53:42.271Z,24.69
2017-08-21T06:56:10.130Z,24.69
2017-08-21T06:58:37.975Z,24.74
2017-08-21T07:01:05.722Z,24.58
2017-08-21T07:03:33.740Z,24.59
2017-08-21T07:06:01.708Z,24.57
2017-08-21T07:08:29.677Z,24.58
2017-08-21T07:10:57.390Z,24.62
2017-08-21T07:13:25.258Z,24.58
2017-08-21T07:15:53.278Z,24.64
2017-08-21T07:18:21.113Z,24.89
2017-08-21T07:20:48.859Z,24.90
2017-08-21T07:23:16.726Z,25.26
2017-08-21T07:25:44.747Z,25.62
2017-08-21T07:28:12.582Z,25.68
2017-08-21T07:30:40.478Z,25.84
2017-08-21T07:33:08.316Z,26.03
2017-08-21T07:35:36.212Z,26.14
2017-08-21T07:38:04.209Z,26.27
2017-08-21T07:40:32.152Z,26.35
2017-08-21T07:42:59.861Z,26.30
2017-08-21T07:45:27.882Z,26.63
2017-08-21T07:47:55.717Z,26.05
2017-08-21T07:50:23.408Z,26.15
2017-08-21T07:52:51.473Z,26.17
2017-08-21T07:55:19.321Z,26.33
2017-08-21T07:57:47.413Z,25.99
2017-08-21T08:00:15.357Z,25.97
2017-08-21T08:02:43.333Z,26.02
2017-08-21T08:05:11.226Z,25.94
2017-08-21T08:07:39.276Z,26.33
2017-08-21T08:10:07.171Z,26.29
2017-08-21T08:12:34.892Z,25.93
2017-08-21T08:15:02.903Z,26.14
2017-08-21T08:17:30.628Z,26.42
2017-08-21T08:19:58.616Z,26.81
2017-08-21T08:22:26.360Z,26.99
2017-08-21T08:24:54.230Z,27.55
2017-08-21T08:27:22.094Z,28.46
2017-08-21T08:29:49.961Z,28.48
2017-08-21T08:32:17.952Z,29.01
2017-08-21T08:34:45.636Z,29.98
2017-08-21T08:37:13.639Z,31.08
2017-08-21T08:39:41.481Z,31.50
2017-08-21T08:42:09.324Z,31.33
2017-08-21T08:44:37.290Z,31.16
2017-08-21T08:47:05.155Z,31.25
2017-08-21T08:49:33.022Z,30.85
2017-08-21T08:52:01.090Z,30.70
2017-08-21T08:54:28.980Z,29.63
2017-08-21T08:56:56.703Z,30.48
2017-08-21T08:59:24.691Z,30.03
2017-08-21T09:01:52.559Z,29.51
2017-08-21T09:04:20.445Z,29.57
2017-08-21T09:06:48.494Z,29.89
2017-08-21T09:09:16.386Z,29.76
2017-08-21T09:11:44.206Z,30.25
2017-08-21T09:14:12.169Z,30.57
2017-08-21T09:16:40.088Z,31.04
2017-08-21T09:19:07.928Z,30.46
2017-08-21T09:21:35.820Z,30.11
2017-08-21T09:24:03.536Z,29.89
2017-08-21T09:26:31.554Z,30.32
2017-08-21T09:28:59.597Z,30.25
2017-08-21T09:31:27.342Z,30.61
2017-08-21T09:33:55.362Z,29.91
2017-08-21T09:36:23.228Z,29.86
2017-08-21T09:38:51.068Z,28.68
2017-08-21T09:41:18.963Z,28.66
2017-08-21T09:43:47.033Z,28.29
2017-08-21T09:46:14.870Z,28.16
2017-08-21T09:48:42.562Z,28.42
2017-08-21T09:51:10.635Z,28.20
2017-08-21T09:53:38.604Z,27.99
2017-08-21T09:56:06.537Z,28.13
2017-08-21T09:58:34.439Z,28.13
2017-08-21T10:01:02.497Z,28.66
2017-08-21T10:03:30.340Z,28.57
2017-08-21T10:05:58.111Z,28.30
2017-08-21T10:08:26.098Z,28.04
2017-08-21T10:10:53.965Z,27.93
2017-08-21T10:13:22.034Z,27.60
2017-08-21T10:16:17.005Z,28.18
2017-08-21T10:18:44.847Z,28.19
2017-08-21T10:21:12.747Z,28.10
2017-08-21T10:23:40.728Z,28.16
2017-08-21T10:26:08.828Z,27.60
2017-08-21T10:28:36.541Z,27.08
2017-08-21T10:31:04.562Z,26.56
2017-08-21T10:33:32.632Z,26.04
2017-08-21T10:36:00.368Z,26.37
2017-08-21T10:38:28.235Z,26.78
2017-08-21T10:40:56.225Z,26.29
2017-08-21T10:43:23.903Z,25.75
2017-08-21T10:45:51.968Z,25.95
2017-08-21T10:48:20.041Z,26.37
2017-08-21T10:50:47.893Z,26.42
2017-08-21T10:53:15.614Z,26.35
2017-08-21T10:55:43.643Z,26.45
2017-08-21T10:58:11.495Z,26.85
2017-08-21T11:00:39.235Z,27.02
2017-08-21T11:03:07.132Z,26.33
2017-08-21T11:05:34.979Z,26.23
2017-08-21T11:08:02.842Z,26.51
2017-08-21T11:10:30.636Z,26.96
2017-08-21T11:12:58.350Z,26.98
2017-08-21T11:15:26.367Z,27.34
2017-08-21T11:17:54.449Z,27.25
2017-08-21T11:20:22.103Z,27.53
2017-08-21T11:22:49.818Z,27.60
2017-08-21T11:25:17.839Z,27.84
2017-08-21T11:27:45.675Z,27.90
2017-08-21T11:30:13.541Z,27.97
2017-08-21T11:32:41.409Z,28.06
2017-08-21T11:35:09.276Z,27.57
2017-08-21T11:37:37.021Z,27.61
2017-08-21T11:40:05.042Z,27.83
2017-08-21T11:42:32.877Z,27.99
2017-08-21T11:45:00.774Z,28.22
2017-08-21T11:47:28.635Z,28.35
2017-08-21T11:49:56.357Z,28.67
2017-08-21T11:52:24.375Z,28.64
2017-08-21T11:54:52.449Z,28.32
2017-08-21T11:57:20.098Z,28.38
2017-08-21T11:59:47.825Z,28.35
2017-08-21T12:02:15.841Z,28.39
2017-08-21T12:04:43.560Z,28.18
2017-08-21T12:07:11.426Z,27.68
2017-08-21T12:09:39.442Z,27.53
2017-08-21T12:12:07.285Z,27.24
2017-08-21T12:14:34.971Z,26.91
2017-08-21T12:17:02.898Z,26.88
2017-08-21T12:19:30.911Z,26.89
2017-08-21T12:21:58.882Z,27.13
2017-08-21T12:24:26.645Z,27.04
2017-08-21T12:26:54.365Z,26.63
2017-08-21T12:29:22.383Z,26.29
2017-08-21T12:31:50.245Z,26.29
2017-08-21T12:34:17.967Z,26.06
2017-08-21T12:36:45.978Z,26.26
2017-08-21T12:39:13.924Z,26.54
2017-08-21T12:41:41.767Z,26.80
2017-08-21T12:44:09.785Z,27.01
2017-08-21T12:46:37.598Z,27.11
2017-08-21T12:49:05.418Z,27.47
2017-08-21T12:51:33.285Z,27.39
2017-08-21T12:54:01.028Z,27.40
2017-08-21T12:56:28.672Z,27.40
2017-08-21T12:58:56.576Z,27.70
2017-08-21T13:01:24.505Z,27.49
2017-08-21T13:03:52.303Z,27.50
2017-08-21T13:06:20.287Z,27.39
2017-08-21T13:08:48.044Z,27.32
2017-08-21T13:11:15.894Z,27.06
2017-08-21T13:13:43.610Z,26.74
2017-08-21T13:16:11.440Z,26.66
2017-08-21T13:18:39.101Z,26.75
2017-08-21T13:21:06.765Z,26.62
2017-08-21T13:23:34.801Z,26.66
2017-08-21T13:26:02.601Z,27.05
2017-08-21T13:28:30.418Z,26.49
2017-08-21T13:30:58.407Z,26.51
2017-08-21T13:33:26.148Z,26.48
2017-08-21T13:35:54.168Z,26.24
2017-08-21T13:38:22.468Z,25.90
2017-08-21T13:40:50.302Z,25.63
2017-08-21T13:43:17.963Z,25.96
2017-08-21T13:45:45.915Z,25.94
2017-08-21T13:48:13.755Z,25.84
2017-08-21T13:50:41.781Z,26.01
2017-08-21T13:53:09.663Z,25.81
2017-08-21T13:55:37.480Z,25.36
2017-08-21T13:58:05.771Z,25.69
2017-08-21T14:00:33.655Z,25.93
2017-08-21T14:03:01.384Z,26.01
2017-08-21T14:05:29.251Z,25.94
2017-08-21T14:07:57.042Z,26.13
2017-08-21T14:10:24.786Z,26.07
2017-08-21T14:12:52.751Z,25.89
2017-08-21T14:15:20.568Z,26.24
2017-08-21T14:17:48.415Z,26.30
2017-08-21T14:20:16.280Z,26.28
2017-08-21T14:22:44.220Z,26.16
2017-08-21T14:25:11.912Z,26.25
2017-08-21T14:27:39.753Z,26.26
2017-08-21T14:30:07.446Z,26.20
2017-08-21T14:32:35.462Z,26.35
2017-08-21T14:35:03.278Z,26.06
2017-08-21T14:37:31.250Z,25.98
2017-08-21T14:39:59.286Z,26.06
2017-08-21T14:42:27.032Z,25.97
2017-08-21T14:44:55.060Z,25.90
2017-08-21T14:47:22.890Z,25.63
2017-08-21T14:49:50.635Z,25.53
2017-08-21T14:52:18.500Z,25.55
2017-08-21T14:54:46.317Z,25.36
2017-08-21T14:57:14.019Z,25.30
2017-08-21T14:59:42.001Z,25.18
2017-08-21T15:02:09.711Z,24.88
2017-08-21T15:04:37.437Z,24.96
2017-08-21T15:07:05.444Z,24.76
2017-08-21T15:09:33.421Z,24.66
2017-08-21T15:12:01.234Z,24.46
2017-08-21T15:14:29.046Z,24.38
2017-08-21T15:16:56.699Z,24.48
2017-08-21T15:19:24.374Z,24.42
2017-08-21T15:21:52.444Z,24.28
2017-08-21T15:24:20.031Z,24.28
2017-08-21T15:26:47.760Z,24.16
2017-08-21T15:29:15.658Z,23.92
2017-08-21T15:31:43.245Z,23.76
2017-08-21T15:34:11.088Z,23.69
2017-08-21T15:36:39.032Z,23.63
2017-08-21T15:39:06.875Z,23.48
2017-08-21T15:41:34.559Z,23.40
2017-08-21T15:44:02.423Z,23.28
2017-08-21T15:46:30.148Z,23.25
2017-08-21T15:48:57.941Z,23.35
2017-08-21T15:51:25.605Z,23.35
2017-08-21T15:53:53.277Z,23.23
2017-08-21T15:56:21.134Z,23.22
2017-08-21T15:58:48.796Z,23.27
2017-08-21T16:01:16.409Z,23.26
2017-08-21T16:03:44.139Z,23.14
2017-08-21T16:06:11.991Z,23.04
2017-08-21T16:08:39.851Z,23.16
2017-08-21T16:11:07.731Z,23.14
2017-08-21T16:13:35.598Z,23.01
2017-08-21T16:16:03.261Z,22.91
2017-08-21T16:18:30.918Z,22.77
2017-08-21T16:23:31.780Z,22.65
2017-08-21T16:25:59.380Z,22.66
2017-08-21T16:28:27.220Z,22.60
2017-08-21T16:30:54.973Z,22.54
2017-08-21T16:33:22.629Z,22.58
2017-08-21T16:35:50.615Z,22.57
2017-08-21T16:38:18.273Z,22.47
2017-08-21T16:40:46.082Z,22.44
2017-08-21T16:43:13.886Z,22.41
2017-08-21T16:45:41.531Z,22.40
2017-08-21T16:48:09.433Z,22.43
2017-08-21T16:50:37.030Z,22.40
2017-08-21T16:53:05.112Z,22.40
2017-08-21T16:55:32.821Z,22.38
2017-08-21T16:58:00.666Z,22.37
2017-08-21T17:00:28.515Z,22.33
2017-08-21T17:02:57.434Z,22.23
2017-08-21T17:05:25.415Z,22.20
2017-08-21T17:07:53.285Z,22.10
2017-08-21T17:10:20.955Z,21.99
2017-08-21T17:12:48.808Z,21.91
2017-08-21T17:15:16.671Z,21.88
2017-08-21T17:17:44.339Z,21.94
2017-08-21T17:20:12.205Z,21.97
2017-08-21T17:22:40.319Z,22.00
2017-08-21T17:25:07.935Z,21.98
2017-08-21T17:27:35.584Z,21.97
2017-08-21T17:30:03.260Z,21.95
2017-08-21T17:32:30.959Z,21.98
2017-08-21T17:34:58.550Z,21.97
2017-08-21T17:37:26.229Z,21.95
2017-08-21T17:39:53.908Z,21.97
2017-08-21T17:42:21.497Z,21.97
2017-08-21T17:44:49.349Z,21.97
2017-08-21T17:47:17.104Z,21.96
2017-08-21T17:49:44.803Z,21.95
2017-08-21T17:52:12.633Z,21.86
2017-08-21T17:54:40.341Z,21.92
2017-08-21T17:57:08.367Z,21.90
2017-08-21T17:59:36.098Z,21.92
2017-08-21T18:02:03.818Z,21.87
2017-08-21T18:04:31.656Z,21.88
2017-08-21T18:06:59.475Z,21.91
2017-08-21T18:09:27.289Z,21.92
2017-08-21T18:11:54.944Z,21.82
2017-08-21T18:14:22.714Z,21.95
2017-08-21T18:16:50.418Z,21.93
2017-08-21T18:19:18.258Z,21.94
2017-08-21T18:21:46.057Z,21.96
2017-08-21T18:24:13.668Z,21.98
2017-08-21T18:26:41.331Z,21.99
2017-08-21T18:29:08.995Z,21.96
2017-08-21T18:31:37.068Z,21.90
2017-08-21T18:34:04.728Z,21.94
2017-08-21T18:36:32.732Z,21.94
2017-08-21T18:39:00.682Z,21.88
2017-08-21T18:41:28.388Z,21.87
2017-08-21T18:43:56.188Z,21.87
2017-08-21T18:46:24.050Z,21.87
2017-08-21T18:48:51.838Z,21.89
2017-08-21T18:51:19.588Z,21.93
2017-08-21T18:53:47.327Z,21.95
2017-08-21T18:56:15.125Z,21.93
2017-08-21T18:58:43.197Z,21.92
2017-08-21T19:01:11.062Z,21.91
2017-08-21T19:03:39.015Z,21.93
2017-08-21T19:06:06.997Z,22.08
2017-08-21T19:08:34.648Z,22.11
2017-08-21T19:11:02.736Z,22.11
2017-08-21T19:13:30.764Z,22.06
2017-08-21T19:15:58.671Z,22.03
2017-08-21T19:18:26.536Z,22.09
2017-08-21T19:20:54.398Z,22.06
2017-08-21T19:23:22.277Z,22.07
2017-08-21T19:25:50.122Z,22.02
2017-08-21T19:28:17.786Z,22.01
2017-08-21T19:30:45.412Z,22.04
2017-08-21T19:33:13.024Z,22.09
2017-08-21T19:35:40.685Z,22.04
2017-08-21T19:38:08.339Z,21.98
2017-08-21T19:40:35.928Z,21.94
2017-08-21T19:43:03.568Z,21.92
2017-08-21T19:45:31.169Z,21.89
2017-08-21T19:47:58.798Z,21.88
2017-08-21T19:50:26.504Z,21.82
2017-08-21T19:52:54.135Z,21.78
2017-08-21T19:55:21.750Z,21.75
2017-08-21T19:57:49.443Z,21.73
2017-08-21T20:00:17.042Z,21.71
2017-08-21T20:02:44.664Z,21.72
2017-08-21T20:05:12.343Z,21.73
2017-08-21T20:07:39.954Z,21.71
2017-08-21T20:10:07.571Z,21.67
2017-08-21T20:12:35.232Z,21.63
2017-08-21T20:15:02.847Z,21.58
2017-08-21T20:17:30.507Z,21.56
2017-08-21T20:19:58.172Z,21.62
2017-08-21T20:22:25.782Z,21.59
2017-08-21T20:24:53.377Z,21.62
2017-08-21T20:27:21.042Z,21.62
2017-08-21T20:29:48.647Z,21.58
2017-08-21T20:32:16.246Z,21.67
2017-08-21T20:34:43.901Z,21.68
2017-08-21T20:37:11.498Z,21.68
2017-08-21T20:39:39.082Z,21.73
2017-08-21T20:42:06.738Z,21.81
2017-08-21T20:44:34.351Z,21.93
2017-08-21T20:47:01.967Z,21.90
2017-08-21T20:49:29.636Z,21.92
2017-08-21T20:51:57.246Z,21.94
2017-08-21T20:54:24.859Z,21.85
2017-08-21T20:56:52.500Z,21.88
2017-08-21T20:59:20.107Z,21.94
2017-08-21T21:01:47.706Z,21.90
2017-08-21T21:04:15.462Z,21.94
2017-08-21T21:06:43.096Z,21.87
2017-08-21T21:09:10.702Z,21.80
2017-08-21T21:11:38.385Z,21.70
2017-08-21T21:14:05.994Z,21.70
2017-08-21T21:16:33.643Z,21.73
2017-08-21T21:19:01.310Z,21.70
2017-08-21T21:21:28.915Z,21.76
2017-08-21T21:23:56.511Z,21.77
2017-08-21T21:26:24.187Z,21.71
2017-08-21T21:28:51.810Z,21.69
2017-08-21T21:31:19.423Z,21.75
2017-08-21T21:33:47.089Z,21.72
2017-08-21T21:36:14.701Z,21.69
2017-08-21T21:38:42.305Z,21.62
2017-08-21T21:41:09.959Z,21.60
2017-08-21T21:43:37.571Z,21.60
2017-08-21T21:46:05.237Z,21.57
2017-08-21T21:48:32.911Z,21.57
2017-08-21T21:51:00.485Z,21.62
2017-08-21T21:53:28.072Z,21.45
2017-08-21T21:55:55.740Z,21.38
2017-08-21T21:58:23.372Z,21.37
2017-08-21T22:00:50.976Z,21.27
2017-08-21T22:03:18.610Z,21.29
2017-08-21T22:05:46.212Z,21.37
2017-08-21T22:08:14.026Z,21.31
2017-08-21T22:10:42.065Z,21.36
2017-08-21T22:13:09.753Z,21.41
2017-08-21T22:15:37.383Z,21.46
2017-08-21T22:18:05.217Z,21.37
2017-08-21T22:20:33.112Z,21.35
2017-08-21T22:23:00.853Z,21.33
2017-08-21T22:25:28.586Z,21.37
2017-08-21T22:27:56.316Z,21.41
2017-08-21T22:30:23.965Z,21.46
2017-08-21T22:32:51.743Z,21.46
2017-08-21T22:35:19.707Z,21.50
2017-08-21T22:37:47.363Z,21.50
2017-08-21T22:40:15.421Z,21.48
2017-08-21T22:42:43.283Z,21.44
2017-08-21T22:45:10.955Z,21.43
2017-08-21T22:47:38.636Z,21.54
2017-08-21T22:50:06.463Z,21.59
2017-08-21T22:52:34.367Z,21.59
2017-08-21T22:55:02.038Z,21.55
2017-08-21T22:57:29.864Z,21.68
2017-08-21T22:59:57.552Z,21.63
2017-08-21T23:02:25.572Z,21.62
2017-08-21T23:04:53.291Z,21.60
2017-08-21T23:07:21.133Z,21.56
2017-08-21T23:09:49.000Z,21.53
2017-08-21T23:12:16.870Z,21.55
2017-08-21T23:14:44.764Z,21.52
2017-08-21T23:17:12.832Z,21.50
2017-08-21T23:19:40.561Z,21.54
2017-08-21T23:22:08.465Z,21.48
2017-08-21T23:24:36.429Z,21.60
2017-08-21T23:27:04.271Z,21.56
2017-08-21T23:29:32.165Z,21.57
2017-08-21T23:32:00.079Z,21.47
2017-08-21T23:34:27.900Z,21.39
2017-08-21T23:36:55.737Z,21.37
2017-08-21T23:39:23.634Z,21.39
2017-08-21T23:41:51.603Z,21.38
2017-08-21T23:44:19.539Z,21.33
2017-08-21T23:46:47.282Z,21.35
2017-08-21T23:49:15.306Z,21.48
2017-08-21T23:51:43.140Z,21.49
2017-08-21T23:54:11.040Z,21.52
2017-08-21T23:56:38.976Z,21.62
2017-08-21T23:59:06.966Z,21.63
